sensor_id;sensor_type;location;lat;lon;timestamp;P1;durP1;ratioP1;P2;durP2;ratioP2
62711;SDS011;48772;55.586;37.730;2022-10-23T00:01:25;5.78;;;4.63;;
62711;SDS011;48772;55.586;37.730;2022-10-23T00:04:12;9.13;;;4.97;;
62711;SDS011;48772;55.586;37.730;2022-10-23T00:06:44;8.07;;;5.53;;
62711;SDS011;48772;55.586;37.730;2022-10-23T00:09:11;5.00;;;3.65;;
62711;SDS011;48772;55.586;37.730;2022-10-23T00:11:40;7.75;;;5.07;;
62711;SDS011;48772;55.586;37.730;2022-10-23T00:14:06;8.80;;;5.75;;
62711;SDS011;48772;55.586;37.730;2022-10-23T00:16:33;7.85;;;5.05;;
62711;SDS011;48772;55.586;37.730;2022-10-23T00:19:02;7.28;;;4.60;;
62711;SDS011;48772;55.586;37.730;2022-10-23T00:21:29;7.30;;;4.55;;
62711;SDS011;48772;55.586;37.730;2022-10-23T00:23:54;7.15;;;4.72;;
62711;SDS011;48772;55.586;37.730;2022-10-23T00:26:20;13.20;;;6.28;;
62711;SDS011;48772;55.586;37.730;2022-10-23T00:28:48;5.50;;;3.78;;
62711;SDS011;48772;55.586;37.730;2022-10-23T00:31:17;6.28;;;4.45;;
62711;SDS011;48772;55.586;37.730;2022-10-23T00:33:47;11.02;;;6.43;;
62711;SDS011;48772;55.586;37.730;2022-10-23T00:36:14;6.40;;;4.22;;
62711;SDS011;48772;55.586;37.730;2022-10-23T00:38:42;10.48;;;5.55;;
62711;SDS011;48772;55.586;37.730;2022-10-23T00:41:13;9.43;;;5.57;;
62711;SDS011;48772;55.586;37.730;2022-10-23T00:43:55;7.07;;;4.82;;
62711;SDS011;48772;55.586;37.730;2022-10-23T00:46:27;9.60;;;6.25;;
62711;SDS011;48772;55.586;37.730;2022-10-23T00:48:57;6.15;;;3.60;;
62711;SDS011;48772;55.586;37.730;2022-10-23T00:51:24;6.78;;;3.80;;
62711;SDS011;48772;55.586;37.730;2022-10-23T00:53:56;8.57;;;4.13;;
62711;SDS011;48772;55.586;37.730;2022-10-23T00:56:24;6.07;;;4.43;;
62711;SDS011;48772;55.586;37.730;2022-10-23T00:58:51;8.88;;;4.70;;
62711;SDS011;48772;55.586;37.730;2022-10-23T01:01:18;5.50;;;3.75;;
62711;SDS011;48772;55.586;37.730;2022-10-23T01:03:45;7.28;;;4.38;;
62711;SDS011;48772;55.586;37.730;2022-10-23T01:06:22;5.70;;;3.42;;
62711;SDS011;48772;55.586;37.730;2022-10-23T01:09:16;8.07;;;5.68;;
62711;SDS011;48772;55.586;37.730;2022-10-23T01:11:49;13.43;;;4.57;;
62711;SDS011;48772;55.586;37.730;2022-10-23T01:14:25;6.10;;;4.38;;
62711;SDS011;48772;55.586;37.730;2022-10-23T01:17:16;5.45;;;2.95;;
62711;SDS011;48772;55.586;37.730;2022-10-23T01:20:36;8.90;;;5.15;;
62711;SDS011;48772;55.586;37.730;2022-10-23T01:28:22;10.88;;;6.80;;
62711;SDS011;48772;55.586;37.730;2022-10-23T01:30:52;9.85;;;6.70;;
62711;SDS011;48772;55.586;37.730;2022-10-23T01:33:26;10.20;;;7.15;;
62711;SDS011;48772;55.586;37.730;2022-10-23T01:36:00;11.60;;;7.50;;
62711;SDS011;48772;55.586;37.730;2022-10-23T01:38:41;13.32;;;5.65;;
62711;SDS011;48772;55.586;37.730;2022-10-23T01:46:54;13.27;;;7.05;;
62711;SDS011;48772;55.586;37.730;2022-10-23T01:49:22;14.48;;;7.70;;
62711;SDS011;48772;55.586;37.730;2022-10-23T01:51:54;14.82;;;5.88;;
62711;SDS011;48772;55.586;37.730;2022-10-23T01:54:25;17.95;;;7.28;;
62711;SDS011;48772;55.586;37.730;2022-10-23T01:56:55;18.90;;;7.82;;
62711;SDS011;48772;55.586;37.730;2022-10-23T01:59:33;16.88;;;6.55;;
62711;SDS011;48772;55.586;37.730;2022-10-23T02:02:04;17.48;;;7.78;;
62711;SDS011;48772;55.586;37.730;2022-10-23T02:04:37;19.98;;;9.27;;
62711;SDS011;48772;55.586;37.730;2022-10-23T02:07:06;14.57;;;8.15;;
62711;SDS011;48772;55.586;37.730;2022-10-23T02:09:33;21.52;;;8.63;;
62711;SDS011;48772;55.586;37.730;2022-10-23T02:12:18;16.17;;;7.15;;
62711;SDS011;48772;55.586;37.730;2022-10-23T02:15:27;26.20;;;7.30;;
62711;SDS011;48772;55.586;37.730;2022-10-23T02:18:14;19.85;;;8.65;;
62711;SDS011;48772;55.586;37.730;2022-10-23T02:21:00;21.38;;;9.82;;
62711;SDS011;48772;55.586;37.730;2022-10-23T02:23:31;17.25;;;9.68;;
62711;SDS011;48772;55.586;37.730;2022-10-23T02:26:08;17.35;;;9.43;;
62711;SDS011;48772;55.586;37.730;2022-10-23T02:28:51;14.65;;;8.57;;
62711;SDS011;48772;55.586;37.730;2022-10-23T02:31:22;16.58;;;8.02;;
62711;SDS011;48772;55.586;37.730;2022-10-23T02:33:48;15.63;;;8.43;;
62711;SDS011;48772;55.586;37.730;2022-10-23T02:36:15;13.05;;;5.88;;
62711;SDS011;48772;55.586;37.730;2022-10-23T02:38:44;12.98;;;7.47;;
62711;SDS011;48772;55.586;37.730;2022-10-23T02:44:09;15.43;;;7.63;;
62711;SDS011;48772;55.586;37.730;2022-10-23T02:47:05;10.13;;;6.22;;
62711;SDS011;48772;55.586;37.730;2022-10-23T02:49:58;20.55;;;9.35;;
62711;SDS011;48772;55.586;37.730;2022-10-23T02:52:52;16.33;;;7.68;;
62711;SDS011;48772;55.586;37.730;2022-10-23T03:00:51;22.20;;;9.48;;
62711;SDS011;48772;55.586;37.730;2022-10-23T03:03:30;19.60;;;9.75;;
62711;SDS011;48772;55.586;37.730;2022-10-23T03:06:00;24.85;;;9.43;;
62711;SDS011;48772;55.586;37.730;2022-10-23T03:08:26;10.98;;;6.50;;
62711;SDS011;48772;55.586;37.730;2022-10-23T03:10:52;28.05;;;10.95;;
62711;SDS011;48772;55.586;37.730;2022-10-23T03:13:20;27.45;;;10.75;;
62711;SDS011;48772;55.586;37.730;2022-10-23T03:15:45;19.83;;;10.02;;
62711;SDS011;48772;55.586;37.730;2022-10-23T03:18:13;29.58;;;11.05;;
62711;SDS011;48772;55.586;37.730;2022-10-23T03:20:44;20.75;;;10.25;;
62711;SDS011;48772;55.586;37.730;2022-10-23T03:23:10;22.27;;;8.75;;
62711;SDS011;48772;55.586;37.730;2022-10-23T03:25:37;20.27;;;7.65;;
62711;SDS011;48772;55.586;37.730;2022-10-23T03:28:03;19.90;;;10.73;;
62711;SDS011;48772;55.586;37.730;2022-10-23T03:30:33;16.98;;;8.77;;
62711;SDS011;48772;55.586;37.730;2022-10-23T03:32:59;24.75;;;10.90;;
62711;SDS011;48772;55.586;37.730;2022-10-23T03:35:25;20.80;;;10.35;;
62711;SDS011;48772;55.586;37.730;2022-10-23T03:37:50;22.63;;;10.57;;
62711;SDS011;48772;55.586;37.730;2022-10-23T03:40:16;21.77;;;11.18;;
62711;SDS011;48772;55.586;37.730;2022-10-23T03:42:43;18.98;;;9.05;;
62711;SDS011;48772;55.586;37.730;2022-10-23T03:45:13;23.48;;;10.65;;
62711;SDS011;48772;55.586;37.730;2022-10-23T03:47:38;27.92;;;9.90;;
62711;SDS011;48772;55.586;37.730;2022-10-23T03:50:06;23.77;;;9.93;;
62711;SDS011;48772;55.586;37.730;2022-10-23T03:52:33;30.08;;;11.65;;
62711;SDS011;48772;55.586;37.730;2022-10-23T03:54:59;18.45;;;9.52;;
62711;SDS011;48772;55.586;37.730;2022-10-23T03:57:25;27.95;;;10.18;;
62711;SDS011;48772;55.586;37.730;2022-10-23T03:59:51;20.58;;;8.27;;
62711;SDS011;48772;55.586;37.730;2022-10-23T04:02:17;29.95;;;11.63;;
62711;SDS011;48772;55.586;37.730;2022-10-23T04:04:43;25.98;;;11.70;;
62711;SDS011;48772;55.586;37.730;2022-10-23T04:07:09;19.33;;;9.05;;
62711;SDS011;48772;55.586;37.730;2022-10-23T04:09:36;25.25;;;11.02;;
62711;SDS011;48772;55.586;37.730;2022-10-23T04:12:02;21.50;;;10.35;;
62711;SDS011;48772;55.586;37.730;2022-10-23T04:14:28;23.08;;;9.80;;
62711;SDS011;48772;55.586;37.730;2022-10-23T04:16:55;19.27;;;10.75;;
62711;SDS011;48772;55.586;37.730;2022-10-23T04:19:21;17.02;;;8.80;;
62711;SDS011;48772;55.586;37.730;2022-10-23T04:21:47;27.77;;;11.38;;
62711;SDS011;48772;55.586;37.730;2022-10-23T04:24:13;16.38;;;8.52;;
62711;SDS011;48772;55.586;37.730;2022-10-23T04:26:38;17.35;;;8.13;;
62711;SDS011;48772;55.586;37.730;2022-10-23T04:29:08;23.33;;;9.20;;
62711;SDS011;48772;55.586;37.730;2022-10-23T04:31:33;18.27;;;9.77;;
62711;SDS011;48772;55.586;37.730;2022-10-23T04:33:59;21.23;;;9.25;;
62711;SDS011;48772;55.586;37.730;2022-10-23T04:36:28;22.90;;;11.75;;
62711;SDS011;48772;55.586;37.730;2022-10-23T04:38:56;29.42;;;9.75;;
62711;SDS011;48772;55.586;37.730;2022-10-23T04:41:23;14.90;;;7.25;;
62711;SDS011;48772;55.586;37.730;2022-10-23T04:43:49;25.02;;;9.95;;
62711;SDS011;48772;55.586;37.730;2022-10-23T04:46:15;32.20;;;10.43;;
62711;SDS011;48772;55.586;37.730;2022-10-23T04:48:44;33.35;;;10.60;;
62711;SDS011;48772;55.586;37.730;2022-10-23T04:51:28;33.92;;;12.27;;
62711;SDS011;48772;55.586;37.730;2022-10-23T04:54:39;25.50;;;12.35;;
62711;SDS011;48772;55.586;37.730;2022-10-23T04:57:26;14.98;;;8.35;;
62711;SDS011;48772;55.586;37.730;2022-10-23T05:00:01;18.73;;;9.73;;
62711;SDS011;48772;55.586;37.730;2022-10-23T05:02:44;23.67;;;7.88;;
62711;SDS011;48772;55.586;37.730;2022-10-23T05:05:26;19.02;;;10.20;;
62711;SDS011;48772;55.586;37.730;2022-10-23T05:09:13;13.57;;;8.00;;
62711;SDS011;48772;55.586;37.730;2022-10-23T05:11:55;20.92;;;10.30;;
62711;SDS011;48772;55.586;37.730;2022-10-23T05:14:45;15.95;;;8.80;;
62711;SDS011;48772;55.586;37.730;2022-10-23T05:17:19;11.10;;;6.10;;
62711;SDS011;48772;55.586;37.730;2022-10-23T05:20:15;15.40;;;8.18;;
62711;SDS011;48772;55.586;37.730;2022-10-23T05:22:45;20.77;;;9.88;;
62711;SDS011;48772;55.586;37.730;2022-10-23T05:27:50;15.63;;;7.88;;
62711;SDS011;48772;55.586;37.730;2022-10-23T05:30:17;22.15;;;10.07;;
62711;SDS011;48772;55.586;37.730;2022-10-23T05:32:43;20.52;;;9.35;;
62711;SDS011;48772;55.586;37.730;2022-10-23T05:35:18;18.00;;;9.50;;
62711;SDS011;48772;55.586;37.730;2022-10-23T05:37:48;21.83;;;9.10;;
62711;SDS011;48772;55.586;37.730;2022-10-23T05:40:20;21.92;;;9.27;;
62711;SDS011;48772;55.586;37.730;2022-10-23T05:42:49;15.98;;;8.80;;
62711;SDS011;48772;55.586;37.730;2022-10-23T05:45:26;29.17;;;12.18;;
62711;SDS011;48772;55.586;37.730;2022-10-23T05:48:13;14.50;;;8.65;;
62711;SDS011;48772;55.586;37.730;2022-10-23T05:51:05;25.75;;;12.52;;
62711;SDS011;48772;55.586;37.730;2022-10-23T05:53:49;24.25;;;9.10;;
62711;SDS011;48772;55.586;37.730;2022-10-23T05:56:37;20.95;;;11.38;;
62711;SDS011;48772;55.586;37.730;2022-10-23T05:59:27;21.98;;;11.20;;
62711;SDS011;48772;55.586;37.730;2022-10-23T06:02:00;19.38;;;9.32;;
62711;SDS011;48772;55.586;37.730;2022-10-23T06:04:51;19.20;;;9.52;;
62711;SDS011;48772;55.586;37.730;2022-10-23T06:07:36;26.73;;;12.77;;
62711;SDS011;48772;55.586;37.730;2022-10-23T06:10:04;12.27;;;6.97;;
62711;SDS011;48772;55.586;37.730;2022-10-23T06:12:33;31.52;;;13.07;;
62711;SDS011;48772;55.586;37.730;2022-10-23T06:14:59;22.67;;;9.70;;
62711;SDS011;48772;55.586;37.730;2022-10-23T06:17:37;20.60;;;10.75;;
62711;SDS011;48772;55.586;37.730;2022-10-23T06:20:03;18.63;;;8.90;;
62711;SDS011;48772;55.586;37.730;2022-10-23T06:22:35;25.50;;;12.23;;
62711;SDS011;48772;55.586;37.730;2022-10-23T06:25:15;26.52;;;12.52;;
62711;SDS011;48772;55.586;37.730;2022-10-23T06:27:42;24.77;;;12.85;;
62711;SDS011;48772;55.586;37.730;2022-10-23T06:30:09;19.92;;;11.00;;
62711;SDS011;48772;55.586;37.730;2022-10-23T06:32:35;17.60;;;10.10;;
62711;SDS011;48772;55.586;37.730;2022-10-23T06:35:10;23.02;;;11.52;;
62711;SDS011;48772;55.586;37.730;2022-10-23T06:37:37;18.77;;;11.57;;
62711;SDS011;48772;55.586;37.730;2022-10-23T06:40:12;21.05;;;11.35;;
62711;SDS011;48772;55.586;37.730;2022-10-23T06:42:54;22.05;;;9.75;;
62711;SDS011;48772;55.586;37.730;2022-10-23T06:45:32;28.67;;;12.48;;
62711;SDS011;48772;55.586;37.730;2022-10-23T06:48:10;23.08;;;11.75;;
62711;SDS011;48772;55.586;37.730;2022-10-23T06:50:42;25.20;;;12.75;;
62711;SDS011;48772;55.586;37.730;2022-10-23T06:53:12;24.42;;;12.43;;
62711;SDS011;48772;55.586;37.730;2022-10-23T06:55:44;15.50;;;8.45;;
62711;SDS011;48772;55.586;37.730;2022-10-23T06:58:10;26.05;;;12.70;;
62711;SDS011;48772;55.586;37.730;2022-10-23T07:00:51;18.70;;;9.63;;
62711;SDS011;48772;55.586;37.730;2022-10-23T07:03:17;27.25;;;12.30;;
62711;SDS011;48772;55.586;37.730;2022-10-23T07:05:43;21.10;;;10.63;;
62711;SDS011;48772;55.586;37.730;2022-10-23T07:08:15;26.80;;;11.73;;
62711;SDS011;48772;55.586;37.730;2022-10-23T07:10:43;19.08;;;10.55;;
62711;SDS011;48772;55.586;37.730;2022-10-23T07:13:10;22.00;;;12.50;;
62711;SDS011;48772;55.586;37.730;2022-10-23T07:15:50;21.30;;;11.57;;
62711;SDS011;48772;55.586;37.730;2022-10-23T07:18:21;23.30;;;12.02;;
62711;SDS011;48772;55.586;37.730;2022-10-23T07:21:09;22.05;;;12.15;;
62711;SDS011;48772;55.586;37.730;2022-10-23T07:23:37;25.83;;;9.95;;
62711;SDS011;48772;55.586;37.730;2022-10-23T07:26:10;21.15;;;11.95;;
62711;SDS011;48772;55.586;37.730;2022-10-23T07:28:40;21.33;;;12.00;;
62711;SDS011;48772;55.586;37.730;2022-10-23T07:31:07;28.45;;;13.05;;
62711;SDS011;48772;55.586;37.730;2022-10-23T07:34:06;22.13;;;12.13;;
62711;SDS011;48772;55.586;37.730;2022-10-23T07:36:32;26.08;;;11.82;;
62711;SDS011;48772;55.586;37.730;2022-10-23T07:38:58;28.70;;;13.23;;
62711;SDS011;48772;55.586;37.730;2022-10-23T07:41:24;21.63;;;10.40;;
62711;SDS011;48772;55.586;37.730;2022-10-23T07:43:50;25.55;;;13.13;;
62711;SDS011;48772;55.586;37.730;2022-10-23T07:46:16;24.08;;;13.10;;
62711;SDS011;48772;55.586;37.730;2022-10-23T07:48:42;23.83;;;11.07;;
62711;SDS011;48772;55.586;37.730;2022-10-23T07:51:12;24.90;;;13.70;;
62711;SDS011;48772;55.586;37.730;2022-10-23T07:53:45;28.52;;;15.02;;
62711;SDS011;48772;55.586;37.730;2022-10-23T07:56:37;25.83;;;14.35;;
62711;SDS011;48772;55.586;37.730;2022-10-23T07:59:24;31.20;;;13.50;;
62711;SDS011;48772;55.586;37.730;2022-10-23T08:01:52;27.15;;;13.13;;
62711;SDS011;48772;55.586;37.730;2022-10-23T08:04:26;25.35;;;13.18;;
62711;SDS011;48772;55.586;37.730;2022-10-23T08:07:02;24.90;;;11.93;;
62711;SDS011;48772;55.586;37.730;2022-10-23T08:09:35;22.55;;;11.05;;
62711;SDS011;48772;55.586;37.730;2022-10-23T08:12:02;24.63;;;12.00;;
62711;SDS011;48772;55.586;37.730;2022-10-23T08:14:28;20.33;;;9.35;;
62711;SDS011;48772;55.586;37.730;2022-10-23T08:16:54;24.70;;;11.30;;
62711;SDS011;48772;55.586;37.730;2022-10-23T08:19:43;20.90;;;9.95;;
62711;SDS011;48772;55.586;37.730;2022-10-23T08:22:11;29.85;;;13.52;;
62711;SDS011;48772;55.586;37.730;2022-10-23T08:24:39;28.27;;;13.40;;
62711;SDS011;48772;55.586;37.730;2022-10-23T08:27:05;31.38;;;14.23;;
62711;SDS011;48772;55.586;37.730;2022-10-23T08:29:35;27.17;;;13.27;;
62711;SDS011;48772;55.586;37.730;2022-10-23T08:32:01;34.58;;;14.43;;
62711;SDS011;48772;55.586;37.730;2022-10-23T08:34:38;20.40;;;9.73;;
62711;SDS011;48772;55.586;37.730;2022-10-23T08:37:04;67.57;;;30.83;;
62711;SDS011;48772;55.586;37.730;2022-10-23T08:39:35;34.50;;;14.48;;
62711;SDS011;48772;55.586;37.730;2022-10-23T08:42:16;40.95;;;14.38;;
62711;SDS011;48772;55.586;37.730;2022-10-23T08:48:25;39.63;;;13.60;;
62711;SDS011;48772;55.586;37.730;2022-10-23T08:51:39;24.65;;;10.85;;
62711;SDS011;48772;55.586;37.730;2022-10-23T08:56:53;33.67;;;14.05;;
62711;SDS011;48772;55.586;37.730;2022-10-23T08:59:39;33.70;;;15.38;;
62711;SDS011;48772;55.586;37.730;2022-10-23T09:02:25;38.85;;;16.63;;
62711;SDS011;48772;55.586;37.730;2022-10-23T09:04:54;42.33;;;15.18;;
62711;SDS011;48772;55.586;37.730;2022-10-23T09:12:25;31.15;;;14.68;;
62711;SDS011;48772;55.586;37.730;2022-10-23T09:15:03;39.53;;;14.40;;
62711;SDS011;48772;55.586;37.730;2022-10-23T09:17:39;34.35;;;15.20;;
62711;SDS011;48772;55.586;37.730;2022-10-23T09:20:17;33.00;;;14.55;;
62711;SDS011;48772;55.586;37.730;2022-10-23T09:22:49;35.65;;;14.18;;
62711;SDS011;48772;55.586;37.730;2022-10-23T09:25:38;42.00;;;14.63;;
62711;SDS011;48772;55.586;37.730;2022-10-23T09:28:12;28.10;;;11.00;;
62711;SDS011;48772;55.586;37.730;2022-10-23T09:30:46;24.08;;;9.68;;
62711;SDS011;48772;55.586;37.730;2022-10-23T09:33:21;20.25;;;7.38;;
62711;SDS011;48772;55.586;37.730;2022-10-23T09:35:54;24.92;;;10.07;;
62711;SDS011;48772;55.586;37.730;2022-10-23T09:38:31;38.25;;;15.52;;
62711;SDS011;48772;55.586;37.730;2022-10-23T09:41:05;44.85;;;16.38;;
62711;SDS011;48772;55.586;37.730;2022-10-23T09:43:34;35.95;;;15.18;;
62711;SDS011;48772;55.586;37.730;2022-10-23T09:46:06;38.95;;;16.42;;
62711;SDS011;48772;55.586;37.730;2022-10-23T09:48:34;24.13;;;10.13;;
62711;SDS011;48772;55.586;37.730;2022-10-23T09:51:03;37.30;;;16.42;;
62711;SDS011;48772;55.586;37.730;2022-10-23T09:54:00;38.13;;;17.58;;
62711;SDS011;48772;55.586;37.730;2022-10-23T09:56:33;37.97;;;15.77;;
62711;SDS011;48772;55.586;37.730;2022-10-23T10:01:44;35.33;;;15.38;;
62711;SDS011;48772;55.586;37.730;2022-10-23T10:04:37;23.20;;;12.13;;
62711;SDS011;48772;55.586;37.730;2022-10-23T10:10:29;43.30;;;16.25;;
62711;SDS011;48772;55.586;37.730;2022-10-23T10:13:05;40.80;;;18.35;;
62711;SDS011;48772;55.586;37.730;2022-10-23T10:15:55;35.88;;;14.90;;
62711;SDS011;48772;55.586;37.730;2022-10-23T10:18:51;35.72;;;15.15;;
62711;SDS011;48772;55.586;37.730;2022-10-23T10:27:08;32.58;;;14.35;;
62711;SDS011;48772;55.586;37.730;2022-10-23T10:29:41;34.25;;;14.73;;
62711;SDS011;48772;55.586;37.730;2022-10-23T10:35:25;34.03;;;15.13;;
62711;SDS011;48772;55.586;37.730;2022-10-23T10:38:27;39.33;;;16.38;;
62711;SDS011;48772;55.586;37.730;2022-10-23T10:50:20;33.22;;;12.68;;
62711;SDS011;48772;55.586;37.730;2022-10-23T10:56:00;37.28;;;15.05;;
62711;SDS011;48772;55.586;37.730;2022-10-23T10:58:41;36.15;;;15.75;;
62711;SDS011;48772;55.586;37.730;2022-10-23T11:01:36;38.53;;;18.50;;
62711;SDS011;48772;55.586;37.730;2022-10-23T11:06:56;42.45;;;17.33;;
62711;SDS011;48772;55.586;37.730;2022-10-23T11:09:27;42.15;;;17.90;;
62711;SDS011;48772;55.586;37.730;2022-10-23T11:11:56;25.63;;;12.60;;
62711;SDS011;48772;55.586;37.730;2022-10-23T11:14:28;42.55;;;19.25;;
62711;SDS011;48772;55.586;37.730;2022-10-23T11:19:41;48.53;;;20.02;;
62711;SDS011;48772;55.586;37.730;2022-10-23T11:22:22;48.03;;;18.70;;
62711;SDS011;48772;55.586;37.730;2022-10-23T11:39:21;24.30;;;11.73;;
62711;SDS011;48772;55.586;37.730;2022-10-23T11:41:57;36.15;;;15.38;;
62711;SDS011;48772;55.586;37.730;2022-10-23T11:44:26;33.42;;;14.63;;
62711;SDS011;48772;55.586;37.730;2022-10-23T11:47:01;48.15;;;19.75;;
62711;SDS011;48772;55.586;37.730;2022-10-23T11:49:30;43.85;;;17.55;;
62711;SDS011;48772;55.586;37.730;2022-10-23T11:52:04;40.75;;;17.70;;
62711;SDS011;48772;55.586;37.730;2022-10-23T11:54:31;42.67;;;17.42;;
62711;SDS011;48772;55.586;37.730;2022-10-23T11:57:12;31.33;;;14.45;;
62711;SDS011;48772;55.586;37.730;2022-10-23T12:02:27;42.60;;;20.73;;
62711;SDS011;48772;55.586;37.730;2022-10-23T12:07:56;29.08;;;11.35;;
62711;SDS011;48772;55.586;37.730;2022-10-23T12:10:32;42.97;;;18.40;;
62711;SDS011;48772;55.586;37.730;2022-10-23T12:13:26;41.80;;;19.02;;
62711;SDS011;48772;55.586;37.730;2022-10-23T12:16:34;39.30;;;18.90;;
62711;SDS011;48772;55.586;37.730;2022-10-23T12:19:11;29.80;;;12.38;;
62711;SDS011;48772;55.586;37.730;2022-10-23T12:21:52;26.73;;;11.52;;
62711;SDS011;48772;55.586;37.730;2022-10-23T12:24:31;45.47;;;20.05;;
62711;SDS011;48772;55.586;37.730;2022-10-23T12:27:13;42.78;;;17.60;;
62711;SDS011;48772;55.586;37.730;2022-10-23T12:32:34;48.25;;;21.02;;
62711;SDS011;48772;55.586;37.730;2022-10-23T12:38:41;36.70;;;15.82;;
62711;SDS011;48772;55.586;37.730;2022-10-23T12:41:15;54.80;;;21.83;;
62711;SDS011;48772;55.586;37.730;2022-10-23T12:43:49;47.25;;;20.80;;
62711;SDS011;48772;55.586;37.730;2022-10-23T12:46:40;42.75;;;19.27;;
62711;SDS011;48772;55.586;37.730;2022-10-23T12:49:18;41.92;;;19.48;;
62711;SDS011;48772;55.586;37.730;2022-10-23T12:54:30;45.08;;;20.88;;
62711;SDS011;48772;55.586;37.730;2022-10-23T12:56:57;42.40;;;21.02;;
62711;SDS011;48772;55.586;37.730;2022-10-23T12:59:25;44.67;;;20.83;;
62711;SDS011;48772;55.586;37.730;2022-10-23T13:02:00;45.70;;;17.27;;
62711;SDS011;48772;55.586;37.730;2022-10-23T13:06:53;50.20;;;21.90;;
62711;SDS011;48772;55.586;37.730;2022-10-23T13:12:13;47.63;;;22.25;;
62711;SDS011;48772;55.586;37.730;2022-10-23T13:15:11;43.30;;;18.58;;
62711;SDS011;48772;55.586;37.730;2022-10-23T13:17:42;51.60;;;22.55;;
62711;SDS011;48772;55.586;37.730;2022-10-23T13:20:22;44.55;;;20.77;;
62711;SDS011;48772;55.586;37.730;2022-10-23T13:23:15;52.72;;;21.15;;
62711;SDS011;48772;55.586;37.730;2022-10-23T13:25:55;46.40;;;20.33;;
62711;SDS011;48772;55.586;37.730;2022-10-23T13:28:39;47.35;;;21.38;;
62711;SDS011;48772;55.586;37.730;2022-10-23T13:34:14;51.53;;;21.80;;
62711;SDS011;48772;55.586;37.730;2022-10-23T13:36:56;24.67;;;11.40;;
62711;SDS011;48772;55.586;37.730;2022-10-23T13:39:23;47.80;;;21.00;;
62711;SDS011;48772;55.586;37.730;2022-10-23T13:41:50;56.03;;;24.92;;
62711;SDS011;48772;55.586;37.730;2022-10-23T13:44:18;56.55;;;23.13;;
62711;SDS011;48772;55.586;37.730;2022-10-23T13:46:49;55.35;;;24.30;;
62711;SDS011;48772;55.586;37.730;2022-10-23T13:49:17;52.05;;;25.20;;
62711;SDS011;48772;55.586;37.730;2022-10-23T13:51:51;47.97;;;20.15;;
62711;SDS011;48772;55.586;37.730;2022-10-23T13:54:22;54.40;;;26.00;;
62711;SDS011;48772;55.586;37.730;2022-10-23T13:56:52;54.30;;;21.75;;
62711;SDS011;48772;55.586;37.730;2022-10-23T13:59:28;49.33;;;23.10;;
62711;SDS011;48772;55.586;37.730;2022-10-23T14:01:54;45.00;;;17.63;;
62711;SDS011;48772;55.586;37.730;2022-10-23T14:04:29;47.80;;;21.92;;
62711;SDS011;48772;55.586;37.730;2022-10-23T14:07:04;68.88;;;26.58;;
62711;SDS011;48772;55.586;37.730;2022-10-23T14:09:45;59.55;;;23.02;;
62711;SDS011;48772;55.586;37.730;2022-10-23T14:12:11;49.10;;;22.50;;
62711;SDS011;48772;55.586;37.730;2022-10-23T14:14:38;52.90;;;23.75;;
62711;SDS011;48772;55.586;37.730;2022-10-23T14:17:07;56.88;;;24.60;;
62711;SDS011;48772;55.586;37.730;2022-10-23T14:20:11;39.72;;;18.20;;
62711;SDS011;48772;55.586;37.730;2022-10-23T14:22:48;63.85;;;26.05;;
62711;SDS011;48772;55.586;37.730;2022-10-23T14:25:26;60.20;;;26.10;;
62711;SDS011;48772;55.586;37.730;2022-10-23T14:27:55;17.45;;;10.80;;
62711;SDS011;48772;55.586;37.730;2022-10-23T14:30:31;47.53;;;21.73;;
62711;SDS011;48772;55.586;37.730;2022-10-23T14:32:58;53.38;;;23.70;;
62711;SDS011;48772;55.586;37.730;2022-10-23T14:35:28;55.67;;;24.98;;
62711;SDS011;48772;55.586;37.730;2022-10-23T14:37:54;18.35;;;9.30;;
62711;SDS011;48772;55.586;37.730;2022-10-23T14:40:27;45.55;;;19.95;;
62711;SDS011;48772;55.586;37.730;2022-10-23T14:42:54;49.20;;;20.38;;
62711;SDS011;48772;55.586;37.730;2022-10-23T14:45:22;47.45;;;21.27;;
62711;SDS011;48772;55.586;37.730;2022-10-23T14:47:54;32.72;;;14.32;;
62711;SDS011;48772;55.586;37.730;2022-10-23T14:50:30;21.63;;;10.82;;
62711;SDS011;48772;55.586;37.730;2022-10-23T14:52:57;30.92;;;15.18;;
62711;SDS011;48772;55.586;37.730;2022-10-23T14:55:24;26.85;;;12.90;;
62711;SDS011;48772;55.586;37.730;2022-10-23T14:57:53;50.85;;;21.58;;
62711;SDS011;48772;55.586;37.730;2022-10-23T15:00:21;36.85;;;18.30;;
62711;SDS011;48772;55.586;37.730;2022-10-23T15:02:49;40.63;;;20.23;;
62711;SDS011;48772;55.586;37.730;2022-10-23T15:05:15;35.60;;;16.42;;
62711;SDS011;48772;55.586;37.730;2022-10-23T15:07:42;27.70;;;11.73;;
62711;SDS011;48772;55.586;37.730;2022-10-23T15:10:09;41.25;;;17.15;;
62711;SDS011;48772;55.586;37.730;2022-10-23T15:12:37;53.90;;;22.10;;
62711;SDS011;48772;55.586;37.730;2022-10-23T15:15:08;15.82;;;8.07;;
62711;SDS011;48772;55.586;37.730;2022-10-23T15:17:35;35.33;;;16.10;;
62711;SDS011;48772;55.586;37.730;2022-10-23T15:20:04;47.28;;;19.40;;
62711;SDS011;48772;55.586;37.730;2022-10-23T15:22:30;36.30;;;16.48;;
62711;SDS011;48772;55.586;37.730;2022-10-23T15:24:57;42.78;;;18.75;;
62711;SDS011;48772;55.586;37.730;2022-10-23T15:27:24;61.05;;;23.63;;
62711;SDS011;48772;55.586;37.730;2022-10-23T15:29:50;57.97;;;20.27;;
62711;SDS011;48772;55.586;37.730;2022-10-23T15:32:43;59.50;;;21.73;;
62711;SDS011;48772;55.586;37.730;2022-10-23T15:35:10;52.67;;;20.15;;
62711;SDS011;48772;55.586;37.730;2022-10-23T15:37:36;57.88;;;20.25;;
62711;SDS011;48772;55.586;37.730;2022-10-23T15:40:08;76.88;;;23.85;;
62711;SDS011;48772;55.586;37.730;2022-10-23T15:43:00;61.15;;;19.80;;
62711;SDS011;48772;55.586;37.730;2022-10-23T15:48:24;66.53;;;23.95;;
62711;SDS011;48772;55.586;37.730;2022-10-23T15:51:09;49.05;;;19.02;;
62711;SDS011;48772;55.586;37.730;2022-10-23T15:57:09;66.57;;;23.67;;
62711;SDS011;48772;55.586;37.730;2022-10-23T15:59:35;64.90;;;21.08;;
62711;SDS011;48772;55.586;37.730;2022-10-23T16:02:04;51.15;;;18.35;;
62711;SDS011;48772;55.586;37.730;2022-10-23T16:04:33;75.35;;;23.73;;
62711;SDS011;48772;55.586;37.730;2022-10-23T16:06:59;56.20;;;18.92;;
62711;SDS011;48772;55.586;37.730;2022-10-23T16:09:25;52.03;;;20.40;;
62711;SDS011;48772;55.586;37.730;2022-10-23T16:11:52;65.05;;;22.83;;
62711;SDS011;48772;55.586;37.730;2022-10-23T16:14:19;39.28;;;15.93;;
62711;SDS011;48772;55.586;37.730;2022-10-23T16:19:43;40.47;;;16.20;;
62711;SDS011;48772;55.586;37.730;2022-10-23T16:22:11;63.88;;;20.90;;
62711;SDS011;48772;55.586;37.730;2022-10-23T16:24:43;69.05;;;23.05;;
62711;SDS011;48772;55.586;37.730;2022-10-23T16:27:13;53.38;;;19.27;;
62711;SDS011;48772;55.586;37.730;2022-10-23T16:29:39;49.28;;;18.88;;
62711;SDS011;48772;55.586;37.730;2022-10-23T16:32:05;53.38;;;21.08;;
62711;SDS011;48772;55.586;37.730;2022-10-23T16:34:32;46.47;;;18.45;;
62711;SDS011;48772;55.586;37.730;2022-10-23T16:36:58;47.22;;;19.73;;
62711;SDS011;48772;55.586;37.730;2022-10-23T16:39:24;40.40;;;17.40;;
62711;SDS011;48772;55.586;37.730;2022-10-23T16:42:08;48.00;;;18.35;;
62711;SDS011;48772;55.586;37.730;2022-10-23T16:44:48;59.72;;;22.50;;